KMLT

Details ICAO KMLT (MLT)
Name MILLINOCKET MUNI
Region United States
Timezone America/New_York (UTC-5.0)
Plans Departing 6
Arriving 7
Stats Elevation 408 ft / 124 m (AMSL)
Location 45.647703° -68.685736°
Runways 2
Magnetic Variation 16.458° W
Sunrise 2017-12-14 12:09:21 UTC / 2017-12-14 07:09:21 Local
Sunset 2017-12-14 20:52:28 UTC / 2017-12-14 15:52:28 Local
Advertisement - Login to hide

Runways

ID Width Length Bearing (true) Bearing (mag) Surface Threshold Offset Overrun Length
11 100 ft / 30 m 4,702 ft / 1,433 m 90.35° 106.81° Asphalt 0 ft / 0 m 0 ft / 0 m
16 150 ft / 46 m 4,003 ft / 1,220 m 139.01° 155.47° Asphalt 0 ft / 0 m 0 ft / 0 m
29 100 ft / 30 m 4,702 ft / 1,433 m 270.36° 286.82° Asphalt 0 ft / 0 m 0 ft / 0 m
34 150 ft / 46 m 4,003 ft / 1,220 m 319.02° 335.48° Asphalt 0 ft / 0 m 0 ft / 0 m

Map

Weather


0- 5 10 15 20 25 30 35+ Temperature / ° C

Clouds and Precipitation
Forecast for 2017-12-15 00:00 UTC. Updated 2 hours ago

Ground ~20,000 ft ~40,000 ft Winds

METAR

KMLT 142253Z AUTO 30009KT 10SM FEW035 M14/M18 A2963 RMK AO2 SLP048 T11391183 TSNO

TAF

Not found

Frequencies

Recorded 135.22 MHz ASOS
Clearance 123.60 MHz CLNC DEL
Unicom 122.80 MHz CTAF/UNICOM
Warning: Do not use this data for real-world aviation or navigation. No guarantee of current accuracy is given.